createdAt,value
2022-08-26T00:01:07.988Z,76.31
2022-08-26T00:03:06.426Z,76.45
2022-08-26T00:05:06.549Z,76.07
2022-08-26T00:07:06.619Z,76.70
2022-08-26T00:09:08.114Z,76.59
2022-08-26T00:11:07.300Z,76.84
2022-08-26T00:13:06.708Z,77.00
2022-08-26T00:15:09.881Z,76.74
2022-08-26T00:17:08.661Z,76.63
2022-08-26T00:19:07.028Z,76.30
2022-08-26T00:21:07.417Z,76.21
2022-08-26T00:23:07.524Z,76.40
2022-08-26T00:25:06.844Z,76.13
2022-08-26T00:27:07.557Z,76.80
2022-08-26T00:29:08.329Z,77.54
2022-08-26T00:31:07.677Z,77.22
2022-08-26T00:33:09.880Z,77.47
2022-08-26T00:35:10.594Z,77.86
2022-08-26T00:37:11.655Z,78.03
2022-08-26T00:39:14.496Z,78.75
2022-08-26T00:41:12.986Z,78.57
2022-08-26T00:43:11.890Z,78.55
2022-08-26T00:45:11.962Z,78.55
2022-08-26T00:47:17.650Z,79.23
2022-08-26T00:49:20.032Z,79.77
2022-08-26T00:51:20.212Z,79.68
2022-08-26T00:53:23.987Z,80.62
2022-08-26T00:55:37.748Z,80.33
2022-08-26T00:57:37.346Z,80.08
2022-08-26T00:59:36.225Z,80.07
2022-08-26T01:01:38.562Z,80.04
2022-08-26T01:03:39.320Z,80.10
2022-08-26T01:05:40.274Z,79.87
2022-08-26T01:07:39.493Z,79.58
2022-08-26T01:09:38.493Z,79.55
2022-08-26T01:11:39.846Z,79.96
2022-08-26T01:13:39.553Z,80.20
2022-08-26T01:15:44.017Z,80.46
2022-08-26T01:17:43.893Z,80.76
2022-08-26T01:19:46.157Z,80.59
2022-08-26T01:21:50.614Z,80.30
2022-08-26T01:23:57.510Z,80.14
2022-08-26T01:26:00.741Z,79.57
2022-08-26T01:28:03.553Z,79.11
2022-08-26T01:30:03.519Z,78.97
2022-08-26T01:32:02.143Z,78.76
2022-08-26T01:34:10.852Z,78.99
2022-08-26T01:36:09.759Z,79.02
2022-08-26T01:38:08.307Z,78.91
2022-08-26T01:40:11.504Z,78.51
2022-08-26T01:42:12.494Z,78.76
2022-08-26T01:44:16.717Z,79.77
2022-08-26T01:46:15.756Z,78.75
2022-08-26T01:48:20.303Z,78.28
2022-08-26T01:50:28.238Z,78.75
2022-08-26T01:52:31.437Z,78.04
2022-08-26T01:54:29.799Z,77.03
2022-08-26T01:56:33.278Z,78.05
2022-08-26T01:58:39.322Z,79.20
2022-08-26T02:00:38.275Z,78.59
2022-08-26T02:02:36.790Z,78.78
2022-08-26T02:04:39.114Z,78.82
2022-08-26T02:06:39.106Z,79.63
2022-08-26T02:08:42.297Z,79.55
2022-08-26T02:10:40.775Z,79.95
2022-08-26T02:12:42.719Z,79.74
2022-08-26T02:14:44.450Z,80.23
2022-08-26T02:16:46.998Z,80.60
2022-08-26T02:18:46.989Z,81.04
2022-08-26T02:20:45.443Z,80.37
2022-08-26T02:22:45.071Z,78.78
2022-08-26T02:24:49.565Z,78.21
2022-08-26T02:26:49.419Z,79.72
2022-08-26T02:28:52.539Z,80.15
2022-08-26T02:30:50.949Z,80.01
2022-08-26T02:32:49.775Z,80.36
2022-08-26T02:34:48.249Z,80.59
2022-08-26T02:36:46.472Z,80.92
2022-08-26T02:38:45.206Z,80.99
2022-08-26T02:40:44.498Z,80.85
2022-08-26T02:42:43.176Z,80.92
2022-08-26T02:44:42.926Z,80.41
2022-08-26T02:46:46.825Z,79.65
2022-08-26T02:48:45.741Z,79.98
2022-08-26T02:50:44.275Z,79.93
2022-08-26T02:52:42.597Z,80.47
2022-08-26T02:54:41.538Z,80.38
2022-08-26T02:56:39.966Z,79.84
2022-08-26T02:58:38.417Z,80.25
2022-08-26T03:00:39.411Z,80.44
2022-08-26T03:02:51.721Z,80.70
2022-08-26T03:04:58.128Z,81.41
2022-08-26T03:07:00.651Z,81.67
2022-08-26T03:08:59.564Z,81.92
2022-08-26T03:10:57.794Z,81.53
2022-08-26T03:12:56.054Z,81.16
2022-08-26T03:14:54.698Z,80.87
2022-08-26T03:16:55.646Z,80.89
2022-08-26T03:18:54.376Z,81.27
2022-08-26T03:20:52.598Z,81.86
2022-08-26T03:22:53.342Z,80.79
2022-08-26T03:24:54.605Z,80.72
2022-08-26T03:26:53.268Z,80.95
2022-08-26T03:29:09.144Z,80.67
2022-08-26T03:31:08.084Z,80.19
2022-08-26T03:33:08.794Z,81.20
2022-08-26T03:35:08.618Z,81.70
2022-08-26T03:37:06.972Z,81.47
2022-08-26T03:39:06.404Z,81.20
2022-08-26T03:41:04.865Z,81.48
2022-08-26T03:43:07.311Z,81.01
2022-08-26T03:45:12.140Z,80.67
2022-08-26T03:47:10.399Z,80.46
2022-08-26T03:49:10.245Z,80.75
2022-08-26T03:51:14.058Z,81.41
2022-08-26T03:53:16.653Z,80.41
2022-08-26T03:55:19.450Z,79.65
2022-08-26T03:57:21.918Z,80.50
2022-08-26T03:59:20.532Z,80.87
2022-08-26T04:01:19.207Z,80.31
2022-08-26T04:03:37.490Z,80.19
2022-08-26T04:05:37.305Z,80.31
2022-08-26T04:07:36.961Z,80.29
2022-08-26T04:09:35.353Z,80.46
2022-08-26T04:11:35.939Z,80.99
2022-08-26T04:13:36.915Z,80.69
2022-08-26T04:15:35.226Z,80.26
2022-08-26T04:17:33.839Z,80.25
2022-08-26T04:19:33.921Z,79.83
2022-08-26T04:21:33.791Z,79.30
2022-08-26T04:23:32.207Z,79.35
2022-08-26T04:25:46.445Z,79.11
2022-08-26T04:27:44.793Z,79.13
2022-08-26T04:29:47.963Z,79.15
2022-08-26T04:31:48.596Z,79.72
2022-08-26T04:33:49.748Z,79.54
2022-08-26T04:35:48.398Z,79.43
2022-08-26T04:37:48.984Z,79.93
2022-08-26T04:39:47.105Z,79.27
2022-08-26T04:41:45.848Z,78.14
2022-08-26T04:43:44.173Z,77.53
2022-08-26T04:45:43.684Z,76.65
2022-08-26T04:47:41.838Z,76.91
2022-08-26T04:49:40.264Z,76.85
2022-08-26T04:51:40.135Z,76.56
2022-08-26T04:53:40.525Z,76.83
2022-08-26T04:55:39.943Z,76.53
2022-08-26T04:57:43.152Z,76.04
2022-08-26T04:59:41.837Z,75.99
2022-08-26T05:01:44.284Z,75.00
2022-08-26T05:03:42.738Z,74.68
2022-08-26T05:05:42.649Z,73.80
2022-08-26T05:07:41.232Z,74.15
2022-08-26T05:09:42.234Z,75.41
2022-08-26T05:11:42.740Z,75.45
2022-08-26T05:13:41.439Z,74.46
2022-08-26T05:15:40.185Z,73.94
2022-08-26T05:17:42.225Z,74.04
2022-08-26T05:19:40.478Z,73.28
2022-08-26T05:21:41.463Z,73.32
2022-08-26T05:23:39.915Z,72.94
2022-08-26T05:25:41.988Z,72.97
2022-08-26T05:27:42.763Z,72.79
2022-08-26T05:29:41.259Z,72.39
2022-08-26T05:31:39.711Z,72.10
2022-08-26T05:33:38.308Z,71.76
2022-08-26T05:35:40.380Z,71.51
2022-08-26T05:37:39.193Z,71.47
2022-08-26T05:39:37.521Z,70.39
2022-08-26T05:41:43.043Z,70.40
2022-08-26T05:43:43.635Z,69.69
2022-08-26T05:45:46.068Z,69.14
2022-08-26T05:47:44.687Z,68.67
2022-08-26T05:49:45.365Z,69.22
2022-08-26T05:51:49.970Z,68.30
2022-08-26T05:53:54.870Z,68.84
2022-08-26T05:55:54.528Z,68.71
2022-08-26T05:57:55.473Z,68.32
2022-08-26T05:59:53.872Z,68.78
2022-08-26T06:01:52.294Z,69.23
2022-08-26T06:03:52.945Z,70.37
2022-08-26T06:05:51.261Z,69.84
2022-08-26T06:08:07.052Z,70.12
2022-08-26T06:10:31.021Z,69.72
2022-08-26T06:12:25.062Z,69.31
2022-08-26T06:14:26.125Z,69.82
2022-08-26T06:16:25.383Z,69.30
2022-08-26T06:18:27.427Z,68.65
2022-08-26T06:20:27.306Z,68.35
2022-08-26T06:22:43.762Z,67.58
2022-08-26T06:24:59.342Z,66.94
2022-08-26T06:26:59.123Z,65.84
2022-08-26T06:28:57.622Z,66.12
2022-08-26T06:30:57.622Z,65.71
2022-08-26T06:32:56.497Z,65.44
2022-08-26T06:34:56.208Z,64.46
2022-08-26T06:36:54.540Z,64.41
2022-08-26T06:38:53.978Z,64.24
2022-08-26T06:40:54.944Z,64.63
2022-08-26T06:42:53.159Z,63.99
2022-08-26T06:44:52.526Z,62.86
2022-08-26T06:46:52.170Z,63.29
2022-08-26T06:48:52.060Z,63.42
2022-08-26T06:50:51.049Z,63.42
2022-08-26T06:52:49.368Z,62.76
2022-08-26T06:54:47.681Z,62.08
2022-08-26T06:56:48.953Z,61.81
2022-08-26T06:58:48.119Z,61.62
2022-08-26T07:00:47.314Z,60.50
2022-08-26T07:02:47.441Z,61.29
2022-08-26T07:04:47.720Z,61.42
2022-08-26T07:06:49.338Z,61.94
2022-08-26T07:08:47.989Z,62.80
2022-08-26T07:10:46.406Z,60.52
2022-08-26T07:12:47.246Z,60.53
2022-08-26T07:14:47.453Z,60.83
2022-08-26T07:16:47.671Z,60.81
2022-08-26T07:18:48.604Z,61.52
2022-08-26T07:20:48.154Z,62.30
2022-08-26T07:22:46.356Z,62.26
2022-08-26T07:24:44.814Z,62.74
2022-08-26T07:26:43.727Z,62.58
2022-08-26T07:28:42.092Z,63.38
2022-08-26T07:30:42.124Z,62.85
2022-08-26T07:32:40.539Z,62.49
2022-08-26T07:34:40.982Z,62.76
2022-08-26T07:36:40.186Z,61.22
2022-08-26T07:38:41.055Z,61.14
2022-08-26T07:40:41.105Z,60.63
2022-08-26T07:42:40.099Z,61.15
2022-08-26T07:44:39.721Z,60.80
2022-08-26T07:46:38.870Z,59.42
2022-08-26T07:48:37.367Z,60.08
2022-08-26T07:50:49.833Z,59.66
2022-08-26T07:52:50.147Z,60.42
2022-08-26T07:54:48.337Z,59.96
2022-08-26T07:56:46.671Z,59.24
2022-08-26T07:58:48.957Z,59.71
2022-08-26T08:00:50.218Z,59.68
2022-08-26T08:02:48.864Z,57.74
2022-08-26T08:04:48.175Z,56.74
2022-08-26T08:06:48.488Z,57.52
2022-08-26T08:08:46.856Z,56.76
2022-08-26T08:10:48.801Z,56.54
2022-08-26T08:12:47.375Z,55.22
2022-08-26T08:14:46.941Z,53.95
2022-08-26T08:16:47.213Z,54.04
2022-08-26T08:18:49.732Z,52.47
2022-08-26T08:20:54.674Z,51.75
2022-08-26T08:23:05.491Z,52.63
2022-08-26T08:25:08.055Z,53.76
2022-08-26T08:27:07.002Z,53.32
2022-08-26T08:29:08.927Z,52.75
2022-08-26T08:31:07.790Z,51.97
2022-08-26T08:33:06.169Z,51.95
2022-08-26T08:35:11.760Z,53.85
2022-08-26T08:37:10.887Z,52.92
2022-08-26T08:39:11.701Z,52.05
2022-08-26T08:41:28.141Z,51.21
2022-08-26T08:43:37.685Z,49.17
2022-08-26T08:45:40.472Z,47.73
2022-08-26T08:47:43.088Z,48.56
2022-08-26T08:49:41.352Z,49.47
2022-08-26T08:51:46.981Z,50.93
2022-08-26T08:53:49.514Z,49.18
2022-08-26T08:56:08.664Z,47.39
2022-08-26T08:58:08.373Z,47.34
2022-08-26T09:00:12.545Z,47.43
2022-08-26T09:02:20.265Z,47.73
2022-08-26T09:04:55.034Z,45.67
2022-08-26T09:09:04.637Z,43.24
2022-08-26T09:11:05.782Z,42.48
2022-08-26T09:13:08.207Z,42.96
2022-08-26T09:15:21.565Z,38.90
2022-08-26T09:17:34.605Z,37.47
2022-08-26T09:19:41.251Z,34.85
2022-08-26T09:21:39.914Z,32.88
2022-08-26T09:23:41.786Z,30.99
2022-08-26T09:25:48.120Z,32.92
2022-08-26T09:27:51.614Z,31.39
2022-08-26T09:29:50.403Z,31.45
2022-08-26T09:31:49.240Z,31.51
2022-08-26T09:33:48.488Z,30.65
2022-08-26T09:35:48.942Z,31.36
2022-08-26T09:39:52.708Z,31.05
2022-08-26T09:42:04.549Z,33.16
2022-08-26T09:44:21.830Z,32.57
2022-08-26T09:46:26.344Z,33.96
2022-08-26T09:48:31.305Z,35.16
2022-08-26T09:50:31.907Z,35.69
2022-08-26T09:52:30.166Z,34.50
2022-08-26T09:54:30.317Z,33.52
2022-08-26T09:56:33.698Z,34.56
2022-08-26T09:58:37.802Z,34.65
2022-08-26T10:00:39.822Z,35.21
2022-08-26T10:02:47.731Z,33.67
2022-08-26T10:04:54.356Z,35.03
2022-08-26T10:06:58.155Z,32.76
2022-08-26T10:09:00.055Z,27.97
2022-08-26T10:11:00.427Z,27.24
2022-08-26T10:13:05.599Z,27.47
2022-08-26T10:15:10.750Z,28.32
2022-08-26T10:17:20.564Z,28.71
2022-08-26T10:19:23.684Z,29.04
2022-08-26T10:21:34.034Z,28.88
2022-08-26T10:25:56.964Z,30.79
2022-08-26T10:28:08.155Z,31.31
2022-08-26T10:30:13.832Z,31.71
2022-08-26T10:32:19.248Z,32.59
2022-08-26T10:34:18.290Z,33.04
2022-08-26T10:37:05.101Z,34.21
2022-08-26T10:39:00.587Z,31.85
2022-08-26T10:41:09.776Z,31.32
2022-08-26T10:43:13.575Z,30.05
2022-08-26T10:45:16.473Z,30.11
2022-08-26T10:47:20.488Z,29.95
2022-08-26T10:49:19.200Z,30.25
2022-08-26T10:51:23.574Z,30.24
2022-08-26T10:53:26.395Z,29.98
2022-08-26T10:55:35.136Z,30.36
2022-08-26T10:57:45.180Z,30.25
2022-08-26T10:59:54.741Z,30.29
2022-08-26T11:02:01.189Z,30.87
2022-08-26T11:04:14.200Z,30.76
2022-08-26T11:06:24.296Z,31.37
2022-08-26T11:08:30.718Z,32.65
2022-08-26T11:10:59.031Z,31.64
2022-08-26T11:13:00.594Z,31.54
2022-08-26T11:14:59.383Z,32.20
2022-08-26T11:16:58.804Z,33.35
2022-08-26T11:18:57.397Z,33.58
2022-08-26T11:20:57.155Z,33.72
2022-08-26T11:22:59.592Z,34.00
2022-08-26T11:25:16.340Z,34.92
2022-08-26T11:28:05.349Z,34.08
2022-08-26T11:30:10.062Z,33.86
2022-08-26T11:32:26.430Z,30.89
2022-08-26T11:34:52.720Z,29.92
2022-08-26T11:37:01.843Z,30.01
2022-08-26T11:39:03.348Z,30.27
2022-08-26T11:41:09.897Z,29.75
2022-08-26T11:43:13.485Z,29.30
2022-08-26T11:45:24.178Z,28.35
2022-08-26T11:47:29.827Z,28.60
2022-08-26T11:49:29.649Z,28.54
2022-08-26T11:51:29.343Z,28.74
2022-08-26T11:53:33.826Z,27.94
2022-08-26T11:55:34.294Z,27.91
2022-08-26T11:57:36.581Z,28.25
2022-08-26T11:59:39.862Z,28.25
2022-08-26T12:01:40.157Z,28.08
2022-08-26T12:03:47.057Z,28.49
2022-08-26T12:05:49.232Z,28.96
2022-08-26T12:07:53.019Z,29.25
2022-08-26T12:09:58.889Z,29.48
2022-08-26T12:12:12.872Z,29.70
2022-08-26T12:14:20.840Z,30.27
2022-08-26T12:16:25.876Z,30.20
2022-08-26T12:18:29.610Z,30.38
2022-08-26T12:20:46.076Z,30.43
2022-08-26T12:22:48.281Z,29.94
2022-08-26T12:24:50.166Z,29.42
2022-08-26T12:26:50.453Z,29.07
2022-08-26T12:28:53.256Z,29.55
2022-08-26T12:31:02.749Z,29.34
2022-08-26T12:33:22.470Z,30.22
2022-08-26T12:35:23.996Z,30.04
2022-08-26T12:37:23.503Z,29.99
2022-08-26T12:39:27.401Z,30.02
2022-08-26T12:41:44.493Z,30.12
2022-08-26T12:43:45.933Z,30.10
2022-08-26T12:45:57.028Z,30.12
2022-08-26T12:47:57.493Z,30.40
2022-08-26T12:50:03.403Z,30.56
2022-08-26T12:52:02.170Z,30.11
2022-08-26T12:54:02.315Z,30.12
2022-08-26T12:56:03.623Z,30.08
2022-08-26T12:58:21.415Z,30.05
2022-08-26T13:00:43.486Z,30.48
2022-08-26T13:02:41.878Z,30.58
2022-08-26T13:04:42.633Z,30.53
2022-08-26T13:06:40.947Z,30.53
2022-08-26T13:08:41.647Z,30.63
2022-08-26T13:10:41.660Z,30.62
2022-08-26T13:12:41.155Z,30.85
2022-08-26T13:14:40.665Z,30.56
2022-08-26T13:16:42.203Z,30.81
2022-08-26T13:18:41.000Z,30.88
2022-08-26T13:20:44.028Z,30.71
2022-08-26T13:22:42.454Z,31.07
2022-08-26T13:24:43.577Z,30.69
2022-08-26T13:26:43.450Z,31.37
2022-08-26T13:28:42.459Z,31.40
2022-08-26T13:30:44.423Z,30.95
2022-08-26T13:32:44.413Z,30.68
2022-08-26T13:34:43.090Z,31.06
2022-08-26T13:36:42.471Z,30.96
2022-08-26T13:38:40.837Z,30.92
2022-08-26T13:40:40.839Z,31.18
2022-08-26T13:42:49.417Z,31.57
2022-08-26T13:44:50.661Z,31.05
2022-08-26T13:46:49.489Z,31.63
2022-08-26T13:48:49.629Z,31.20
2022-08-26T13:50:48.540Z,30.74
2022-08-26T13:52:46.935Z,31.14
2022-08-26T13:54:45.738Z,31.18
2022-08-26T13:56:43.989Z,31.48
2022-08-26T13:58:42.434Z,31.06
2022-08-26T14:00:41.373Z,31.57
2022-08-26T14:02:39.609Z,31.48
2022-08-26T14:04:39.427Z,31.75
2022-08-26T14:06:37.779Z,32.58
2022-08-26T14:08:36.957Z,31.72
2022-08-26T14:10:35.341Z,31.74
2022-08-26T14:12:33.759Z,31.83
2022-08-26T14:14:32.016Z,31.56
2022-08-26T14:16:34.682Z,31.52
2022-08-26T14:18:41.093Z,32.15
2022-08-26T14:20:41.678Z,32.45
2022-08-26T14:22:52.090Z,32.17
2022-08-26T14:24:56.610Z,32.02
2022-08-26T14:26:54.992Z,33.31
2022-08-26T14:28:53.752Z,34.05
2022-08-26T14:30:55.001Z,34.25
2022-08-26T14:32:58.336Z,34.39
2022-08-26T14:34:57.525Z,35.08
2022-08-26T14:36:57.195Z,35.23
2022-08-26T14:38:56.404Z,35.41
2022-08-26T14:40:54.674Z,35.55
2022-08-26T14:42:55.122Z,35.97
2022-08-26T14:44:59.786Z,35.50
2022-08-26T14:46:58.196Z,36.02
2022-08-26T14:48:57.306Z,36.06
2022-08-26T14:51:00.387Z,36.02
2022-08-26T14:53:17.607Z,36.49
2022-08-26T14:55:15.922Z,36.07
2022-08-26T14:57:15.530Z,36.62
2022-08-26T14:59:21.990Z,36.54
2022-08-26T15:01:23.091Z,36.15
2022-08-26T15:03:21.951Z,36.78
2022-08-26T15:05:20.958Z,36.21
2022-08-26T15:07:20.172Z,36.46
2022-08-26T15:09:20.450Z,34.99
2022-08-26T15:11:19.279Z,35.13
2022-08-26T15:13:17.562Z,34.99
2022-08-26T15:15:18.630Z,34.68
2022-08-26T15:17:17.602Z,35.43
2022-08-26T15:19:16.683Z,35.06
2022-08-26T15:21:15.222Z,34.85
2022-08-26T15:23:15.710Z,35.33
2022-08-26T15:25:18.292Z,35.21
2022-08-26T15:27:17.223Z,34.82
2022-08-26T15:29:16.037Z,34.91
2022-08-26T15:31:14.335Z,35.25
2022-08-26T15:33:15.416Z,35.17
2022-08-26T15:35:13.826Z,35.15
2022-08-26T15:37:12.393Z,35.49
2022-08-26T15:39:10.873Z,35.66
2022-08-26T15:41:11.745Z,35.62
2022-08-26T15:43:27.960Z,35.83
2022-08-26T15:45:26.916Z,35.96
2022-08-26T15:47:26.124Z,35.45
2022-08-26T15:49:27.739Z,35.93
2022-08-26T15:51:28.969Z,35.76
2022-08-26T15:53:28.100Z,35.68
2022-08-26T15:55:26.705Z,35.78
2022-08-26T15:57:28.013Z,35.95
2022-08-26T15:59:26.703Z,35.52
2022-08-26T16:01:27.491Z,35.58
2022-08-26T16:03:26.255Z,35.72
2022-08-26T16:05:24.677Z,35.86
2022-08-26T16:07:23.591Z,36.37
2022-08-26T16:09:24.300Z,35.92
2022-08-26T16:11:26.141Z,35.62
2022-08-26T16:13:26.064Z,35.89
2022-08-26T16:15:27.253Z,36.19
2022-08-26T16:17:25.855Z,36.32
2022-08-26T16:19:24.383Z,36.27
2022-08-26T16:21:25.662Z,36.12
2022-08-26T16:23:24.414Z,36.37
2022-08-26T16:25:23.141Z,36.46
2022-08-26T16:27:23.155Z,36.54
2022-08-26T16:29:23.028Z,36.79
2022-08-26T16:31:21.555Z,36.67
2022-08-26T16:33:29.309Z,37.05
2022-08-26T16:35:28.156Z,37.69
2022-08-26T16:37:26.678Z,38.03
2022-08-26T16:39:25.166Z,38.11
2022-08-26T16:41:24.186Z,37.90
2022-08-26T16:43:25.600Z,38.19
2022-08-26T16:45:26.132Z,38.69
2022-08-26T16:47:24.503Z,38.93
2022-08-26T16:49:22.884Z,39.23
2022-08-26T16:51:24.171Z,39.18
2022-08-26T16:53:22.896Z,39.28
2022-08-26T16:55:21.662Z,39.75
2022-08-26T16:57:20.076Z,40.85
2022-08-26T16:59:18.393Z,41.03
2022-08-26T17:01:18.849Z,40.26
2022-08-26T17:03:17.287Z,40.89
2022-08-26T17:05:15.897Z,41.35
2022-08-26T17:07:14.254Z,41.18
2022-08-26T17:09:13.078Z,42.18
2022-08-26T17:11:11.765Z,42.13
2022-08-26T17:13:10.321Z,41.98
2022-08-26T17:15:10.638Z,43.45
2022-08-26T17:17:10.239Z,42.77
2022-08-26T17:19:08.566Z,43.45
2022-08-26T17:21:09.270Z,42.96
2022-08-26T17:23:09.603Z,43.45
2022-08-26T17:25:13.432Z,43.92
2022-08-26T17:27:11.910Z,43.87
2022-08-26T17:29:10.295Z,44.19
2022-08-26T17:31:09.542Z,45.11
2022-08-26T17:33:11.223Z,44.64
2022-08-26T17:35:11.001Z,44.51
2022-08-26T17:37:11.249Z,44.61
2022-08-26T17:39:11.232Z,44.67
2022-08-26T17:41:13.650Z,44.80
2022-08-26T17:43:12.599Z,45.47
2022-08-26T17:45:13.978Z,45.39
2022-08-26T17:47:14.985Z,45.44
2022-08-26T17:49:16.138Z,45.66
2022-08-26T17:51:16.762Z,46.25
2022-08-26T17:53:18.859Z,46.60
2022-08-26T17:55:19.234Z,47.01
2022-08-26T17:57:18.424Z,47.34
2022-08-26T17:59:17.393Z,46.82
2022-08-26T18:01:16.834Z,46.97
2022-08-26T18:03:15.667Z,47.54
2022-08-26T18:05:17.820Z,47.28
2022-08-26T18:07:17.050Z,47.31
2022-08-26T18:09:15.241Z,47.76
2022-08-26T18:11:15.853Z,47.93
2022-08-26T18:13:15.367Z,47.84
2022-08-26T18:15:15.278Z,49.66
2022-08-26T18:17:13.995Z,50.37
2022-08-26T18:19:17.867Z,51.34
2022-08-26T18:21:19.560Z,50.50
2022-08-26T18:23:18.361Z,50.10
2022-08-26T18:25:18.505Z,50.05
2022-08-26T18:27:17.936Z,51.61
2022-08-26T18:29:18.601Z,52.82
2022-08-26T18:31:17.210Z,52.22
2022-08-26T18:33:15.971Z,52.01
2022-08-26T18:35:15.136Z,52.31
2022-08-26T18:37:14.903Z,52.76
2022-08-26T18:39:15.520Z,52.72
2022-08-26T18:41:13.857Z,53.62
2022-08-26T18:43:12.957Z,53.56
2022-08-26T18:45:16.047Z,52.50
2022-08-26T18:47:14.956Z,53.27
2022-08-26T18:49:15.058Z,53.17
2022-08-26T18:51:18.403Z,53.52
2022-08-26T18:53:18.128Z,54.04
2022-08-26T18:55:49.110Z,54.37
2022-08-26T18:57:47.539Z,54.46
2022-08-26T18:59:46.032Z,55.14
2022-08-26T19:01:50.421Z,54.96
2022-08-26T19:03:49.257Z,55.57
2022-08-26T19:05:47.921Z,56.29
2022-08-26T19:07:46.209Z,56.96
2022-08-26T19:09:48.002Z,56.94
2022-08-26T19:11:52.331Z,56.89
2022-08-26T19:13:50.750Z,57.41
2022-08-26T19:15:49.152Z,57.56
2022-08-26T19:17:48.300Z,58.37
2022-08-26T19:19:46.935Z,58.16
2022-08-26T19:21:45.671Z,57.47
2022-08-26T19:23:44.450Z,58.52
2022-08-26T19:25:44.817Z,58.78
2022-08-26T19:27:43.229Z,58.98
2022-08-26T19:29:42.241Z,59.38
2022-08-26T19:31:42.260Z,59.20
2022-08-26T19:33:45.601Z,59.51
2022-08-26T19:35:46.360Z,59.86
2022-08-26T19:37:44.990Z,60.63
2022-08-26T19:39:43.450Z,60.03
2022-08-26T19:41:43.272Z,60.75
2022-08-26T19:43:41.565Z,60.57
2022-08-26T19:45:40.254Z,59.98
2022-08-26T19:47:39.744Z,60.25
2022-08-26T19:49:39.444Z,60.57
2022-08-26T19:51:37.990Z,60.92
2022-08-26T19:53:36.265Z,60.00
2022-08-26T19:55:35.177Z,59.90
2022-08-26T19:57:35.434Z,59.62
2022-08-26T19:59:35.509Z,59.18
2022-08-26T20:01:33.757Z,59.36
2022-08-26T20:03:33.359Z,60.49
2022-08-26T20:05:31.809Z,60.04
2022-08-26T20:07:30.043Z,60.44
2022-08-26T20:09:28.916Z,60.98
2022-08-26T20:11:27.381Z,61.57
2022-08-26T20:13:27.101Z,62.33
2022-08-26T20:15:25.516Z,63.14
2022-08-26T20:17:26.913Z,62.91
2022-08-26T20:19:42.731Z,63.60
2022-08-26T20:21:41.438Z,63.94
2022-08-26T20:23:41.397Z,64.21
2022-08-26T20:25:39.846Z,64.43
2022-08-26T20:27:38.704Z,64.33
2022-08-26T20:29:38.599Z,64.77
2022-08-26T20:31:37.477Z,64.58
2022-08-26T20:33:46.317Z,64.78
2022-08-26T20:35:45.058Z,65.28
2022-08-26T20:37:44.006Z,65.74
2022-08-26T20:39:42.366Z,65.79
2022-08-26T20:41:41.316Z,66.31
2022-08-26T20:43:39.745Z,66.39
2022-08-26T20:45:39.372Z,66.48
2022-08-26T20:47:37.709Z,66.48
2022-08-26T20:49:36.541Z,66.56
2022-08-26T20:51:37.433Z,66.73
2022-08-26T20:53:35.920Z,66.46
2022-08-26T20:55:34.225Z,66.84
2022-08-26T20:57:32.644Z,66.85
2022-08-26T20:59:30.833Z,66.59
2022-08-26T21:01:34.769Z,66.79
2022-08-26T21:03:33.213Z,66.64
2022-08-26T21:05:31.631Z,65.69
2022-08-26T21:07:30.177Z,65.37
2022-08-26T21:09:28.895Z,65.05
2022-08-26T21:11:29.237Z,65.00
2022-08-26T21:13:30.744Z,65.42
2022-08-26T21:15:34.252Z,65.49
2022-08-26T21:17:34.056Z,65.48
2022-08-26T21:19:32.298Z,65.88
2022-08-26T21:21:30.850Z,66.09
2022-08-26T21:23:29.436Z,66.12
2022-08-26T21:25:27.877Z,66.04
2022-08-26T21:27:26.689Z,65.37
2022-08-26T21:29:26.295Z,65.21
2022-08-26T21:31:26.294Z,65.21
2022-08-26T21:33:25.996Z,64.71
2022-08-26T21:35:27.530Z,65.15
2022-08-26T21:37:27.623Z,64.79
2022-08-26T21:39:25.974Z,65.32
2022-08-26T21:41:25.102Z,64.95
2022-08-26T21:43:33.692Z,65.08
2022-08-26T21:45:34.233Z,65.25
2022-08-26T21:47:32.863Z,65.75
2022-08-26T21:49:32.523Z,66.22
2022-08-26T21:51:32.758Z,65.77
2022-08-26T21:53:31.236Z,65.74
2022-08-26T21:55:29.496Z,65.88
2022-08-26T21:57:28.828Z,66.21
2022-08-26T21:59:27.063Z,67.30
2022-08-26T22:01:29.592Z,67.27
2022-08-26T22:03:28.138Z,67.63
2022-08-26T22:05:31.245Z,67.94
2022-08-26T22:07:29.658Z,68.29
2022-08-26T22:09:30.899Z,68.77
2022-08-26T22:11:29.692Z,69.50
2022-08-26T22:13:31.926Z,68.58
2022-08-26T22:15:33.133Z,67.63
2022-08-26T22:17:31.693Z,67.50
2022-08-26T22:19:31.801Z,67.44
2022-08-26T22:21:35.872Z,67.20
2022-08-26T22:23:34.497Z,67.17
2022-08-26T22:25:33.598Z,67.19
2022-08-26T22:27:31.878Z,67.29
2022-08-26T22:29:30.149Z,67.64
2022-08-26T22:31:37.788Z,68.15
2022-08-26T22:33:36.914Z,68.62
2022-08-26T22:35:40.631Z,69.22
2022-08-26T22:37:40.398Z,69.53
2022-08-26T22:39:39.328Z,69.60
2022-08-26T22:41:37.621Z,69.99
2022-08-26T22:43:36.257Z,70.16
2022-08-26T22:45:34.571Z,70.03
2022-08-26T22:47:33.526Z,70.56
2022-08-26T22:49:34.066Z,71.00
2022-08-26T22:51:32.614Z,71.17
2022-08-26T22:53:35.219Z,71.39
2022-08-26T22:55:34.353Z,71.93
2022-08-26T22:57:33.027Z,72.61
2022-08-26T22:59:31.331Z,72.39
2022-08-26T23:01:29.831Z,72.64
2022-08-26T23:03:28.719Z,73.15
2022-08-26T23:05:27.012Z,72.97
2022-08-26T23:07:25.379Z,73.14
2022-08-26T23:09:25.072Z,73.64
2022-08-26T23:11:23.370Z,73.49
2022-08-26T23:13:22.051Z,73.55
2022-08-26T23:15:21.250Z,74.02
2022-08-26T23:17:19.456Z,74.52
2022-08-26T23:19:19.741Z,74.70
2022-08-26T23:21:17.976Z,75.13
2022-08-26T23:23:16.310Z,75.18
2022-08-26T23:25:16.139Z,75.39
2022-08-26T23:27:14.472Z,75.52
2022-08-26T23:29:15.724Z,75.48
2022-08-26T23:31:14.804Z,75.74
2022-08-26T23:33:13.285Z,75.63
2022-08-26T23:35:12.008Z,75.33
2022-08-26T23:37:12.708Z,75.55
2022-08-26T23:39:11.103Z,75.76
2022-08-26T23:41:10.757Z,75.66
2022-08-26T23:43:12.610Z,75.81
2022-08-26T23:45:13.554Z,75.89
2022-08-26T23:47:12.251Z,75.42
2022-08-26T23:49:10.531Z,74.70
2022-08-26T23:51:26.535Z,74.74
2022-08-26T23:53:24.994Z,74.54
2022-08-26T23:55:23.728Z,73.98
2022-08-26T23:57:26.066Z,74.01
2022-08-26T23:59:24.525Z,71.69
